To NAV CANADA Home Page Login to a new session Search on AWWS site Feedback and Comments Disclaimer Vers la page française équivalente Tips FAQ What's new on the site To the Forecasts and Observations / NOTAM section To "File a Flight Plan" website Publications and other links Update of the User's profile FIC Telephone Numbers My Weather Data Folder Route Weather Data Regional Weather Data Local Weather Data To the Forecasts and Observations / NOTAM section
Request Generated 10/01/2016 at 15:27:22 UTC . Weather information available at that time is displayed.

METAR/TAF

ST. ANTHONY/NL    (show WxCam)

METAR CYAY 011500Z AUTO 25020G30KT 9SM CLR 12/05 A2999 RMK SLP158=
METAR CYAY 011400Z AUTO 25022G29KT 9SM CLR 12/03 A3001 RMK SLP166=
METAR CYAY 011300Z AUTO 25018G23KT 9SM CLR 12/02 A3004 RMK SLP177=

TAF CYAY 011338Z 0114/0202 25015G25KT P6SM SKC
FM011700 27020G30KT P6SM FEW030 BKN050 TEMPO 0117/0119 P6SM -SHRA
BECMG 0117/0119 31020G30KT
FM012100 33015G25KT P6SM SCT060
FM012300 31010KT P6SM SKC
BECMG 0201/0202 27008KT
RMK FCST BASED ON AUTO OBS. NXT FCST BY 012000Z=
Your time UTC time
Weather data provided by Environment Canada and NAV CANADA